createdAt,value
2019-02-15T00:02:26.332Z,79.57
2019-02-15T00:04:54.819Z,79.01
2019-02-15T00:07:23.448Z,78.83
2019-02-15T00:09:51.873Z,79.36
2019-02-15T00:12:20.298Z,79.39
2019-02-15T00:14:49.157Z,79.40
2019-02-15T00:17:19.340Z,79.48
2019-02-15T00:19:52.371Z,79.34
2019-02-15T00:22:20.933Z,79.04
2019-02-15T00:24:49.364Z,78.80
2019-02-15T00:27:17.799Z,79.63
2019-02-15T00:29:46.295Z,78.99
2019-02-15T00:32:15.084Z,79.11
2019-02-15T00:34:43.516Z,78.92
2019-02-15T00:37:11.934Z,78.47
2019-02-15T00:39:40.503Z,78.54
2019-02-15T00:42:09.064Z,78.85
2019-02-15T00:44:37.547Z,78.93
2019-02-15T00:47:22.216Z,79.15
2019-02-15T00:49:52.568Z,79.27
2019-02-15T00:52:22.776Z,79.18
2019-02-15T00:55:07.703Z,79.15
2019-02-15T00:57:52.400Z,78.68
2019-02-15T01:00:22.513Z,78.59
2019-02-15T01:02:52.629Z,79.19
2019-02-15T01:05:22.809Z,79.27
2019-02-15T01:07:52.843Z,79.23
2019-02-15T01:10:37.884Z,79.02
2019-02-15T01:13:08.018Z,78.80
2019-02-15T01:15:36.501Z,78.71
2019-02-15T01:18:04.914Z,78.33
2019-02-15T01:20:33.418Z,78.06
2019-02-15T01:23:01.908Z,78.01
2019-02-15T01:25:32.110Z,77.36
2019-02-15T01:28:02.244Z,77.35
2019-02-15T01:30:48.643Z,77.52
2019-02-15T01:33:21.729Z,77.23
2019-02-15T01:36:03.594Z,77.21
2019-02-15T01:38:39.377Z,77.21
2019-02-15T01:41:12.572Z,77.47
2019-02-15T01:43:45.208Z,77.45
2019-02-15T01:46:18.087Z,77.23
2019-02-15T01:48:46.577Z,77.56
2019-02-15T01:51:15.135Z,77.75
2019-02-15T01:53:43.578Z,77.76
2019-02-15T01:56:11.985Z,77.69
2019-02-15T01:58:40.550Z,77.44
2019-02-15T02:01:09.175Z,77.62
2019-02-15T02:03:37.675Z,77.63
2019-02-15T02:06:06.161Z,77.28
2019-02-15T02:08:34.765Z,77.44
2019-02-15T02:11:03.275Z,77.86
2019-02-15T02:13:31.770Z,77.43
2019-02-15T02:16:00.212Z,77.53
2019-02-15T02:18:28.594Z,77.42
2019-02-15T02:20:57.151Z,77.81
2019-02-15T02:23:25.653Z,77.97
2019-02-15T02:25:54.154Z,78.19
2019-02-15T02:28:22.650Z,78.45
2019-02-15T02:30:51.211Z,78.75
2019-02-15T02:33:19.802Z,79.23
2019-02-15T02:35:48.356Z,79.78
2019-02-15T02:38:16.914Z,80.46
2019-02-15T02:40:45.332Z,80.63
2019-02-15T02:43:13.809Z,80.80
2019-02-15T02:45:42.361Z,81.00
2019-02-15T02:48:10.787Z,81.16
2019-02-15T02:50:39.295Z,81.19
2019-02-15T02:53:07.711Z,81.31
2019-02-15T02:55:36.189Z,81.49
2019-02-15T02:58:04.756Z,81.32
2019-02-15T03:00:33.962Z,81.44
2019-02-15T03:03:02.590Z,81.34
2019-02-15T03:05:31.149Z,81.19
2019-02-15T03:07:59.657Z,81.05
2019-02-15T03:10:28.081Z,81.00
2019-02-15T03:12:56.621Z,80.94
2019-02-15T03:15:25.131Z,80.93
2019-02-15T03:17:53.611Z,80.54
2019-02-15T03:20:30.777Z,79.99
2019-02-15T03:22:52.472Z,80.26
2019-02-15T03:25:21.012Z,79.78
2019-02-15T03:27:49.587Z,80.00
2019-02-15T03:30:18.170Z,79.48
2019-02-15T03:32:46.698Z,79.20
2019-02-15T03:35:15.336Z,79.55
2019-02-15T03:37:45.474Z,78.96
2019-02-15T03:40:21.557Z,79.06
2019-02-15T03:42:50.184Z,79.06
2019-02-15T03:45:18.820Z,78.64
2019-02-15T03:47:47.459Z,79.61
2019-02-15T03:50:16.019Z,79.67
2019-02-15T03:52:44.473Z,79.61
2019-02-15T03:55:12.946Z,80.16
2019-02-15T03:57:41.514Z,79.97
2019-02-15T04:00:12.262Z,79.64
2019-02-15T04:02:40.669Z,78.60
2019-02-15T04:05:09.210Z,78.04
2019-02-15T04:07:37.772Z,77.75
2019-02-15T04:10:08.400Z,77.32
2019-02-15T04:12:36.952Z,76.85
2019-02-15T04:15:06.972Z,76.52
2019-02-15T04:17:35.461Z,76.04
2019-02-15T04:20:05.281Z,76.48
2019-02-15T04:22:33.698Z,76.51
2019-02-15T04:25:02.122Z,76.24
2019-02-15T04:27:30.677Z,76.36
2019-02-15T04:29:59.175Z,76.37
2019-02-15T04:32:27.598Z,76.12
2019-02-15T04:34:56.168Z,76.14
2019-02-15T04:37:24.646Z,76.24
2019-02-15T04:39:53.216Z,76.00
2019-02-15T04:42:21.721Z,76.57
2019-02-15T04:44:50.340Z,77.34
2019-02-15T04:47:18.934Z,78.54
2019-02-15T04:49:47.409Z,79.06
2019-02-15T04:52:15.918Z,79.51
2019-02-15T04:54:44.471Z,79.62
2019-02-15T04:57:13.018Z,80.00
2019-02-15T04:59:41.596Z,80.24
2019-02-15T05:02:10.071Z,80.10
2019-02-15T05:04:38.608Z,79.99
2019-02-15T05:07:07.176Z,80.32
2019-02-15T05:09:35.671Z,79.96
2019-02-15T05:12:04.168Z,80.26
2019-02-15T05:14:52.769Z,80.60
2019-02-15T05:17:15.707Z,80.90
2019-02-15T05:19:44.119Z,80.94
2019-02-15T05:22:12.612Z,80.66
2019-02-15T05:24:41.103Z,80.57
2019-02-15T05:27:09.665Z,81.01
2019-02-15T05:29:38.220Z,81.02
2019-02-15T05:32:06.849Z,80.94
2019-02-15T05:34:35.528Z,80.81
2019-02-15T05:37:04.101Z,80.73
2019-02-15T05:39:32.654Z,80.73
2019-02-15T05:42:01.294Z,80.61
2019-02-15T05:44:29.786Z,80.30
2019-02-15T05:46:58.351Z,80.35
2019-02-15T05:49:26.892Z,80.46
2019-02-15T05:51:55.416Z,80.91
2019-02-15T05:54:24.046Z,80.97
2019-02-15T05:56:52.601Z,80.81
2019-02-15T05:59:21.183Z,81.25
2019-02-15T06:01:49.727Z,81.25
2019-02-15T06:04:18.411Z,81.25
2019-02-15T06:06:46.906Z,81.32
2019-02-15T06:09:15.541Z,81.24
2019-02-15T06:11:44.182Z,81.20
2019-02-15T06:14:12.723Z,81.20
2019-02-15T06:16:41.219Z,81.01
2019-02-15T06:19:09.791Z,80.64
2019-02-15T06:21:38.410Z,80.26
2019-02-15T06:24:06.976Z,80.37
2019-02-15T06:26:35.455Z,80.48
2019-02-15T06:29:04.010Z,80.72
2019-02-15T06:31:32.643Z,80.72
2019-02-15T06:34:01.216Z,80.64
2019-02-15T06:36:31.411Z,80.67
2019-02-15T06:38:59.979Z,80.47
2019-02-15T06:41:28.467Z,80.35
2019-02-15T06:43:57.039Z,79.98
2019-02-15T06:46:25.605Z,79.31
2019-02-15T06:48:54.247Z,78.86
2019-02-15T06:51:23.097Z,78.72
2019-02-15T06:53:51.515Z,78.39
2019-02-15T06:56:20.107Z,78.44
2019-02-15T06:59:06.281Z,77.21
2019-02-15T07:01:36.506Z,77.24
2019-02-15T07:04:06.709Z,76.05
2019-02-15T07:06:35.260Z,75.82
2019-02-15T07:09:04.769Z,76.06
2019-02-15T07:11:33.243Z,76.09
2019-02-15T07:14:01.807Z,75.85
2019-02-15T07:16:30.290Z,76.04
2019-02-15T07:18:58.697Z,76.33
2019-02-15T07:21:27.183Z,75.96
2019-02-15T07:23:55.744Z,76.58
2019-02-15T07:26:24.384Z,76.57
2019-02-15T07:28:52.936Z,76.44
2019-02-15T07:31:21.562Z,74.98
2019-02-15T07:33:50.196Z,75.26
2019-02-15T07:36:18.692Z,73.72
2019-02-15T07:38:47.248Z,74.58
2019-02-15T07:41:15.735Z,74.50
2019-02-15T07:43:44.283Z,74.77
2019-02-15T07:46:12.701Z,74.06
2019-02-15T07:48:41.330Z,73.75
2019-02-15T07:51:10.141Z,72.31
2019-02-15T07:53:38.715Z,73.24
2019-02-15T07:56:07.215Z,73.63
2019-02-15T07:58:35.720Z,73.56
2019-02-15T08:01:04.212Z,72.25
2019-02-15T08:03:32.799Z,72.90
2019-02-15T08:06:01.340Z,73.40
2019-02-15T08:08:29.836Z,69.92
2019-02-15T08:10:58.314Z,69.52
2019-02-15T08:13:26.882Z,71.42
2019-02-15T08:15:55.373Z,69.75
2019-02-15T08:18:23.960Z,70.06
2019-02-15T08:20:52.511Z,70.23
2019-02-15T08:23:20.996Z,70.98
2019-02-15T08:25:49.570Z,71.40
2019-02-15T08:28:18.164Z,68.62
2019-02-15T08:30:46.746Z,71.03
2019-02-15T08:33:15.313Z,71.62
2019-02-15T08:35:43.868Z,68.97
2019-02-15T08:38:12.419Z,68.44
2019-02-15T08:40:40.997Z,70.38
2019-02-15T08:43:09.385Z,69.31
2019-02-15T08:45:37.872Z,69.29
2019-02-15T08:48:06.428Z,69.09
2019-02-15T08:50:34.982Z,70.38
2019-02-15T08:53:03.468Z,68.43
2019-02-15T08:55:32.119Z,70.59
2019-02-15T08:58:00.672Z,71.12
2019-02-15T09:00:29.173Z,71.66
2019-02-15T09:02:57.783Z,70.66
2019-02-15T09:05:26.203Z,70.65
2019-02-15T09:07:54.693Z,71.92
2019-02-15T09:10:23.184Z,70.11
2019-02-15T09:12:51.646Z,69.52
2019-02-15T09:15:22.376Z,70.20
2019-02-15T09:17:51.007Z,69.40
2019-02-15T09:20:19.607Z,70.80
2019-02-15T09:22:48.141Z,69.10
2019-02-15T09:25:16.706Z,69.28
2019-02-15T09:28:03.152Z,68.90
2019-02-15T09:30:31.651Z,69.07
2019-02-15T09:33:00.108Z,68.44
2019-02-15T09:35:28.680Z,67.59
2019-02-15T09:37:57.146Z,67.52
2019-02-15T09:40:25.761Z,66.55
2019-02-15T09:42:54.250Z,65.43
2019-02-15T09:45:22.800Z,64.54
2019-02-15T09:47:52.030Z,64.85
2019-02-15T09:50:21.153Z,65.14
2019-02-15T09:52:50.315Z,63.97
2019-02-15T09:55:19.458Z,61.78
2019-02-15T09:57:48.776Z,62.37
2019-02-15T10:00:17.910Z,62.70
2019-02-15T10:02:47.055Z,62.33
2019-02-15T10:05:16.139Z,60.88
2019-02-15T10:07:45.272Z,59.94
2019-02-15T10:10:14.324Z,59.95
2019-02-15T10:12:43.500Z,59.59
2019-02-15T10:15:12.566Z,59.96
2019-02-15T10:17:41.685Z,58.32
2019-02-15T10:20:10.860Z,59.84
2019-02-15T10:22:40.000Z,58.91
2019-02-15T10:25:09.800Z,59.24
2019-02-15T10:27:38.948Z,59.10
2019-02-15T10:30:12.408Z,56.69
2019-02-15T10:32:41.621Z,57.93
2019-02-15T10:35:11.371Z,58.44
2019-02-15T10:37:40.522Z,58.00
2019-02-15T10:40:10.810Z,56.59
2019-02-15T10:42:39.891Z,56.72
2019-02-15T10:45:16.632Z,58.19
2019-02-15T10:47:45.805Z,59.57
2019-02-15T10:50:14.926Z,60.81
2019-02-15T10:52:44.151Z,57.41
2019-02-15T10:55:13.288Z,59.12
2019-02-15T10:57:42.451Z,58.47
2019-02-15T11:00:15.685Z,55.00
2019-02-15T11:02:45.052Z,53.92
2019-02-15T11:05:14.700Z,53.61
2019-02-15T11:07:43.709Z,53.29
2019-02-15T11:10:12.835Z,52.19
2019-02-15T11:12:42.054Z,53.54
2019-02-15T11:15:17.525Z,53.61
2019-02-15T11:17:46.701Z,55.51
2019-02-15T11:20:17.300Z,55.05
2019-02-15T11:22:46.369Z,55.88
2019-02-15T11:25:15.575Z,55.69
2019-02-15T11:27:44.736Z,55.96
2019-02-15T11:30:15.136Z,58.22
2019-02-15T11:32:44.254Z,56.45
2019-02-15T11:35:13.887Z,55.86
2019-02-15T11:37:43.100Z,56.51
2019-02-15T11:40:14.557Z,56.34
2019-02-15T11:42:43.632Z,56.64
2019-02-15T11:45:13.654Z,56.33
2019-02-15T11:47:42.790Z,55.14
2019-02-15T11:50:13.117Z,56.00
2019-02-15T11:52:42.257Z,56.47
2019-02-15T11:55:11.501Z,56.24
2019-02-15T11:57:40.648Z,54.97
2019-02-15T12:00:14.827Z,56.41
2019-02-15T12:02:44.177Z,56.73
2019-02-15T12:05:13.317Z,56.08
2019-02-15T12:07:42.518Z,56.94
2019-02-15T12:10:11.793Z,55.81
2019-02-15T12:12:40.921Z,56.25
2019-02-15T12:15:10.656Z,55.70
2019-02-15T12:17:39.800Z,55.78
2019-02-15T12:20:11.200Z,57.11
2019-02-15T12:22:40.338Z,56.45
2019-02-15T12:25:09.489Z,57.08
2019-02-15T12:27:38.632Z,55.02
2019-02-15T12:30:12.857Z,56.03
2019-02-15T12:32:41.942Z,57.77
2019-02-15T12:35:11.402Z,57.48
2019-02-15T12:37:40.445Z,57.67
2019-02-15T12:40:10.686Z,58.35
2019-02-15T12:42:39.907Z,57.67
2019-02-15T12:45:16.518Z,57.40
2019-02-15T12:47:45.722Z,58.15
2019-02-15T12:50:18.760Z,57.53
2019-02-15T12:52:47.945Z,58.03
2019-02-15T12:55:17.099Z,58.13
2019-02-15T12:57:46.300Z,57.24
2019-02-15T13:00:18.543Z,58.49
2019-02-15T13:02:47.636Z,57.75
2019-02-15T13:05:16.792Z,58.43
2019-02-15T13:07:45.995Z,55.83
2019-02-15T13:10:25.495Z,56.45
2019-02-15T13:12:54.550Z,56.91
2019-02-15T13:15:23.803Z,56.12
2019-02-15T13:17:52.967Z,55.93
2019-02-15T13:20:22.212Z,56.46
2019-02-15T13:22:51.288Z,54.52
2019-02-15T13:25:20.420Z,54.65
2019-02-15T13:27:49.639Z,55.41
2019-02-15T13:30:18.844Z,54.70
2019-02-15T13:32:47.435Z,53.98
2019-02-15T13:35:19.065Z,54.43
2019-02-15T13:37:48.137Z,54.22
2019-02-15T13:40:17.256Z,53.37
2019-02-15T13:42:46.389Z,52.54
2019-02-15T13:45:15.530Z,51.37
2019-02-15T13:47:44.678Z,52.44
2019-02-15T13:50:14.796Z,52.62
2019-02-15T13:52:43.802Z,50.46
2019-02-15T13:55:13.018Z,51.08
2019-02-15T13:57:42.130Z,52.63
2019-02-15T14:00:15.441Z,50.69
2019-02-15T14:02:44.490Z,50.57
2019-02-15T14:05:13.776Z,51.01
2019-02-15T14:07:42.987Z,52.00
2019-02-15T14:10:13.299Z,50.77
2019-02-15T14:12:42.496Z,51.31
2019-02-15T14:15:12.249Z,52.01
2019-02-15T14:17:48.026Z,51.07
2019-02-15T14:20:13.301Z,51.16
2019-02-15T14:22:42.308Z,52.32
2019-02-15T14:25:13.032Z,53.19
2019-02-15T14:27:42.200Z,53.49
2019-02-15T14:30:12.580Z,53.00
2019-02-15T14:32:41.828Z,52.36
2019-02-15T14:35:14.288Z,52.90
2019-02-15T14:37:43.432Z,54.52
2019-02-15T14:40:12.674Z,54.72
2019-02-15T14:42:41.298Z,54.23
2019-02-15T14:45:11.446Z,53.85
2019-02-15T14:47:40.803Z,54.43
2019-02-15T14:50:10.762Z,54.85
2019-02-15T14:52:39.321Z,54.32
2019-02-15T14:55:09.155Z,54.69
2019-02-15T14:57:37.631Z,55.99
2019-02-15T15:00:13.144Z,55.36
2019-02-15T15:02:41.698Z,55.77
2019-02-15T15:05:11.953Z,57.13
2019-02-15T15:07:40.427Z,56.37
2019-02-15T15:10:09.798Z,56.47
2019-02-15T15:12:38.415Z,57.25
2019-02-15T15:15:12.715Z,57.45
2019-02-15T15:17:41.279Z,57.82
2019-02-15T15:20:11.480Z,57.53
2019-02-15T15:22:40.108Z,57.71
2019-02-15T15:25:12.705Z,57.35
2019-02-15T15:27:41.269Z,57.38
2019-02-15T15:30:11.896Z,57.64
2019-02-15T15:32:40.457Z,57.14
2019-02-15T15:35:10.299Z,57.46
2019-02-15T15:37:38.866Z,57.30
2019-02-15T15:40:10.649Z,57.49
2019-02-15T15:42:39.221Z,57.70
2019-02-15T15:45:09.674Z,58.40
2019-02-15T15:47:38.312Z,57.74
2019-02-15T15:50:08.681Z,58.41
2019-02-15T15:52:37.299Z,58.35
2019-02-15T15:55:07.273Z,58.82
2019-02-15T15:57:35.859Z,59.29
2019-02-15T16:00:05.302Z,58.93
2019-02-15T16:02:33.934Z,59.63
2019-02-15T16:05:02.567Z,59.55
2019-02-15T16:07:31.205Z,59.89
2019-02-15T16:09:59.855Z,59.73
2019-02-15T16:12:28.498Z,60.05
2019-02-15T16:14:57.157Z,59.79
2019-02-15T16:17:27.443Z,60.19
2019-02-15T16:19:56.082Z,59.90
2019-02-15T16:22:26.061Z,59.71
2019-02-15T16:24:54.769Z,60.06
2019-02-15T16:27:23.335Z,60.66
2019-02-15T16:29:51.969Z,59.65
2019-02-15T16:32:20.615Z,59.61
2019-02-15T16:34:49.401Z,60.06
2019-02-15T16:37:18.037Z,60.28
2019-02-15T16:39:46.630Z,61.13
2019-02-15T16:42:15.275Z,60.34
2019-02-15T16:44:43.853Z,59.59
2019-02-15T16:47:12.348Z,59.50
2019-02-15T16:49:40.982Z,59.74
2019-02-15T16:52:09.623Z,59.35
2019-02-15T16:54:38.186Z,60.09
2019-02-15T16:57:06.769Z,59.59
2019-02-15T16:59:35.403Z,59.69
2019-02-15T17:02:03.978Z,59.88
2019-02-15T17:04:32.550Z,59.75
2019-02-15T17:07:01.118Z,59.88
2019-02-15T17:09:29.747Z,60.15
2019-02-15T17:12:00.146Z,60.28
2019-02-15T17:14:28.773Z,60.56
2019-02-15T17:16:57.421Z,60.98
2019-02-15T17:19:26.056Z,60.24
2019-02-15T17:21:54.572Z,60.61
2019-02-15T17:24:23.301Z,61.24
2019-02-15T17:26:51.966Z,62.29
2019-02-15T17:29:22.527Z,63.29
2019-02-15T17:31:51.187Z,64.01
2019-02-15T17:34:19.807Z,65.18
2019-02-15T17:36:48.421Z,66.25
2019-02-15T17:39:17.055Z,66.56
2019-02-15T17:41:45.682Z,67.13
2019-02-15T17:44:14.449Z,67.40
2019-02-15T17:46:43.099Z,67.12
2019-02-15T17:49:11.749Z,66.93
2019-02-15T17:51:41.953Z,66.38
2019-02-15T17:54:10.572Z,65.77
2019-02-15T17:56:39.086Z,66.07
2019-02-15T17:59:07.648Z,66.20
2019-02-15T18:01:36.303Z,66.08
2019-02-15T18:04:04.943Z,66.56
2019-02-15T18:06:33.586Z,65.94
2019-02-15T18:09:02.226Z,57.93
2019-02-15T18:11:30.869Z,57.42
2019-02-15T18:13:59.385Z,57.22
2019-02-15T18:16:28.265Z,57.29
2019-02-15T18:18:56.876Z,56.82
2019-02-15T18:21:25.514Z,56.46
2019-02-15T18:23:54.199Z,56.72
2019-02-15T18:26:22.920Z,56.04
2019-02-15T18:28:51.774Z,55.44
2019-02-15T18:31:20.409Z,56.82
2019-02-15T18:33:49.048Z,56.63
2019-02-15T18:36:17.713Z,56.08
2019-02-15T18:38:46.374Z,56.02
2019-02-15T18:41:15.010Z,57.49
2019-02-15T18:43:43.717Z,58.88
2019-02-15T18:46:12.407Z,58.43
2019-02-15T18:48:41.064Z,60.19
2019-02-15T18:51:09.672Z,58.55
2019-02-15T18:53:38.317Z,57.99
2019-02-15T18:56:06.966Z,59.39
2019-02-15T18:58:35.597Z,61.41
2019-02-15T19:01:04.181Z,62.55
2019-02-15T19:03:32.787Z,61.60
2019-02-15T19:06:01.446Z,60.12
2019-02-15T19:08:30.086Z,59.62
2019-02-15T19:10:58.758Z,60.62
2019-02-15T19:13:27.398Z,57.93
2019-02-15T19:15:56.038Z,58.42
2019-02-15T19:18:24.702Z,57.72
2019-02-15T19:20:53.404Z,60.17
2019-02-15T19:23:22.033Z,59.67
2019-02-15T19:25:50.706Z,59.79
2019-02-15T19:28:19.362Z,61.13
2019-02-15T19:30:47.925Z,62.79
2019-02-15T19:33:16.576Z,63.64
2019-02-15T19:35:45.213Z,64.00
2019-02-15T19:38:13.767Z,64.60
2019-02-15T19:40:42.426Z,65.03
2019-02-15T19:43:12.784Z,65.61
2019-02-15T19:45:41.362Z,65.76
2019-02-15T19:48:10.262Z,66.40
2019-02-15T19:50:38.850Z,66.64
2019-02-15T19:53:07.485Z,66.95
2019-02-15T19:55:36.046Z,66.99
2019-02-15T19:58:04.958Z,66.91
2019-02-15T20:00:35.487Z,67.26
2019-02-15T20:03:03.882Z,67.16
2019-02-15T20:05:32.528Z,67.52
2019-02-15T20:08:01.230Z,67.69
2019-02-15T20:10:30.563Z,67.93
2019-02-15T20:13:00.801Z,68.17
2019-02-15T20:15:29.630Z,68.08
2019-02-15T20:17:58.270Z,68.60
2019-02-15T20:20:26.769Z,68.59
2019-02-15T20:22:55.401Z,68.54
2019-02-15T20:25:23.965Z,68.71
2019-02-15T20:27:54.812Z,68.85
2019-02-15T20:30:23.853Z,69.04
2019-02-15T20:32:52.489Z,69.40
2019-02-15T20:35:21.119Z,69.10
2019-02-15T20:37:49.676Z,69.51
2019-02-15T20:40:18.428Z,70.12
2019-02-15T20:42:47.089Z,70.10
2019-02-15T20:45:21.138Z,70.26
2019-02-15T20:47:49.781Z,70.60
2019-02-15T20:50:18.945Z,70.57
2019-02-15T20:52:47.587Z,70.55
2019-02-15T20:55:18.491Z,70.48
2019-02-15T20:57:47.135Z,70.21
2019-02-15T21:00:21.593Z,70.02
2019-02-15T21:02:50.142Z,70.14
2019-02-15T21:05:18.628Z,70.55
2019-02-15T21:07:47.282Z,70.90
2019-02-15T21:10:15.895Z,71.08
2019-02-15T21:12:44.416Z,71.15
2019-02-15T21:15:14.026Z,71.34
2019-02-15T21:17:42.575Z,70.97
2019-02-15T21:20:12.420Z,70.86
2019-02-15T21:22:41.170Z,71.63
2019-02-15T21:25:11.713Z,71.32
2019-02-15T21:27:40.280Z,71.27
2019-02-15T21:30:14.653Z,70.66
2019-02-15T21:32:43.286Z,71.04
2019-02-15T21:35:11.851Z,70.76
2019-02-15T21:37:40.488Z,71.38
2019-02-15T21:40:17.290Z,71.43
2019-02-15T21:42:45.978Z,71.44
2019-02-15T21:45:14.500Z,71.76
2019-02-15T21:47:43.142Z,71.70
2019-02-15T21:50:17.256Z,72.49
2019-02-15T21:52:44.417Z,72.77
2019-02-15T21:55:14.165Z,72.34
2019-02-15T21:57:42.789Z,71.92
2019-02-15T22:00:14.784Z,72.67
2019-02-15T22:02:43.353Z,72.46
2019-02-15T22:05:12.000Z,72.24
2019-02-15T22:07:40.488Z,71.81
2019-02-15T22:10:09.861Z,72.33
2019-02-15T22:12:38.431Z,72.89
2019-02-15T22:15:10.130Z,73.68
2019-02-15T22:17:38.608Z,74.08
2019-02-15T22:20:10.062Z,74.37
2019-02-15T22:22:38.487Z,74.27
2019-02-15T22:25:07.802Z,74.29
2019-02-15T22:27:36.370Z,73.63
2019-02-15T22:30:15.387Z,73.90
2019-02-15T22:32:43.883Z,73.71
2019-02-15T22:35:12.482Z,73.79
2019-02-15T22:37:41.084Z,73.76
2019-02-15T22:40:30.079Z,74.04
2019-02-15T22:43:13.435Z,74.56
2019-02-15T22:45:42.009Z,74.27
2019-02-15T22:48:10.635Z,74.41
2019-02-15T22:50:39.197Z,73.97
2019-02-15T22:53:07.696Z,73.79
2019-02-15T22:55:36.244Z,73.28
2019-02-15T22:58:04.903Z,73.15
2019-02-15T23:00:55.881Z,72.64
2019-02-15T23:03:26.216Z,72.52
2019-02-15T23:05:54.772Z,72.32
2019-02-15T23:08:23.243Z,72.26
2019-02-15T23:10:51.731Z,71.85
2019-02-15T23:13:20.379Z,71.54
2019-02-15T23:15:49.021Z,70.57
2019-02-15T23:18:19.098Z,69.84
2019-02-15T23:20:47.637Z,70.27
2019-02-15T23:23:16.185Z,70.37
2019-02-15T23:25:44.742Z,70.29
2019-02-15T23:28:13.370Z,70.54
2019-02-15T23:30:41.968Z,71.18
2019-02-15T23:33:10.526Z,70.87
2019-02-15T23:35:39.088Z,71.26
2019-02-15T23:38:07.923Z,71.63
2019-02-15T23:40:36.421Z,70.96
2019-02-15T23:43:04.995Z,70.82
2019-02-15T23:45:33.410Z,70.82
2019-02-15T23:48:02.053Z,71.02
2019-02-15T23:50:30.544Z,70.63
2019-02-15T23:52:59.163Z,70.51
2019-02-15T23:55:27.661Z,70.82
2019-02-15T23:57:56.283Z,71.15
